createdAt,value
2022-12-23T00:01:38.343Z,0.00
2022-12-23T00:06:39.077Z,0.00
2022-12-23T00:11:39.825Z,0.00
2022-12-23T00:16:40.547Z,0.00
2022-12-23T00:21:41.271Z,0.00
2022-12-23T00:26:42.021Z,0.00
2022-12-23T00:31:42.802Z,0.00
2022-12-23T00:36:43.615Z,0.00
2022-12-23T00:41:44.366Z,0.00
2022-12-23T00:46:45.089Z,0.00
2022-12-23T00:51:45.799Z,0.00
2022-12-23T00:56:46.522Z,0.00
2022-12-23T01:01:47.457Z,0.00
2022-12-23T01:06:47.654Z,0.00
2022-12-23T01:11:48.384Z,0.00
2022-12-23T01:16:49.193Z,0.00
2022-12-23T01:21:49.876Z,0.00
2022-12-23T01:26:50.589Z,0.00
2022-12-23T01:31:51.436Z,0.00
2022-12-23T01:36:52.165Z,0.00
2022-12-23T01:41:52.895Z,0.00
2022-12-23T01:46:53.627Z,0.00
2022-12-23T01:51:54.311Z,0.00
2022-12-23T01:56:55.033Z,0.00
2022-12-23T02:01:55.914Z,0.00
2022-12-23T02:06:56.680Z,0.00
2022-12-23T02:11:57.371Z,0.00
2022-12-23T02:16:58.167Z,0.00
2022-12-23T02:21:58.838Z,0.00
2022-12-23T02:26:59.744Z,0.00
2022-12-23T02:32:00.424Z,0.00
2022-12-23T02:37:01.137Z,0.00
2022-12-23T02:42:02.031Z,0.00
2022-12-23T02:47:02.705Z,0.00
2022-12-23T02:52:03.420Z,0.00
2022-12-23T02:57:04.162Z,0.00
2022-12-23T03:02:05.074Z,0.00
2022-12-23T03:07:08.082Z,0.00
2022-12-23T03:12:06.286Z,0.00
2022-12-23T03:17:07.017Z,0.00
2022-12-23T03:22:07.795Z,0.00
2022-12-23T03:27:08.440Z,0.00
2022-12-23T03:32:09.166Z,0.00
2022-12-23T03:37:09.929Z,0.00
2022-12-23T03:42:17.610Z,0.00
2022-12-23T03:47:11.286Z,0.00
2022-12-23T03:52:18.878Z,0.00
2022-12-23T03:57:13.630Z,0.00
2022-12-23T04:02:13.507Z,0.00
2022-12-23T04:07:14.230Z,0.00
2022-12-23T04:12:14.957Z,0.00
2022-12-23T04:17:15.697Z,0.00
2022-12-23T04:22:16.415Z,0.00
2022-12-23T04:27:17.122Z,0.00
2022-12-23T04:32:17.844Z,0.00
2022-12-23T04:37:18.525Z,0.00
2022-12-23T04:42:19.234Z,0.00
2022-12-23T04:47:19.965Z,0.00
2022-12-23T04:52:20.656Z,0.00
2022-12-23T04:57:21.372Z,0.00
2022-12-23T05:02:22.223Z,0.00
2022-12-23T05:07:22.915Z,0.00
2022-12-23T05:12:23.636Z,0.00
2022-12-23T05:17:24.364Z,0.00
2022-12-23T05:22:25.094Z,0.00
2022-12-23T05:27:25.791Z,0.00
2022-12-23T05:32:26.505Z,0.00
2022-12-23T05:37:27.250Z,0.00
2022-12-23T05:42:28.017Z,0.00
2022-12-23T05:47:28.738Z,0.00
2022-12-23T05:52:29.447Z,0.00
2022-12-23T05:57:30.244Z,0.00
2022-12-23T06:02:31.199Z,0.00
2022-12-23T06:07:31.498Z,0.00
2022-12-23T06:12:32.313Z,0.00
2022-12-23T06:17:33.015Z,0.00
2022-12-23T06:22:33.702Z,0.00
2022-12-23T06:27:34.410Z,0.00
2022-12-23T06:32:38.559Z,0.00
2022-12-23T06:37:36.002Z,1.00
2022-12-23T06:42:36.731Z,0.00
2022-12-23T06:47:37.425Z,1.00
2022-12-23T06:52:38.082Z,2.00
2022-12-23T06:57:38.747Z,1.00
2022-12-23T07:02:39.579Z,1.00
2022-12-23T07:07:40.398Z,3.00
2022-12-23T07:12:46.031Z,9.00
2022-12-23T07:17:42.571Z,25.00
2022-12-23T07:22:42.253Z,24.00
2022-12-23T07:27:42.891Z,50.00
2022-12-23T07:32:43.581Z,59.00
2022-12-23T07:37:44.266Z,101.00
2022-12-23T07:42:46.635Z,129.00
2022-12-23T07:47:45.643Z,162.00
2022-12-23T07:52:46.333Z,181.00
2022-12-23T07:57:47.023Z,170.00
2022-12-23T08:02:47.864Z,150.00
2022-12-23T08:07:48.628Z,187.00
2022-12-23T08:12:49.323Z,267.00
2022-12-23T08:17:49.963Z,205.00
2022-12-23T08:22:50.633Z,242.00
2022-12-23T08:27:51.341Z,341.00
2022-12-23T08:32:51.896Z,514.00
2022-12-23T08:37:52.557Z,477.00
2022-12-23T08:42:53.219Z,401.00
2022-12-23T08:47:53.926Z,403.00
2022-12-23T08:52:54.583Z,374.00
2022-12-23T08:57:55.278Z,322.00
2022-12-23T09:02:56.086Z,254.00
2022-12-23T09:07:56.879Z,398.00
2022-12-23T09:12:58.275Z,926.00
2022-12-23T09:17:58.435Z,811.00
2022-12-23T09:22:59.147Z,713.00
2022-12-23T09:27:59.811Z,940.00
2022-12-23T09:33:00.451Z,820.00
2022-12-23T09:38:01.151Z,584.00
2022-12-23T09:43:01.808Z,891.00
2022-12-23T09:48:02.506Z,971.00
2022-12-23T09:53:03.150Z,672.00
2022-12-23T09:58:03.822Z,878.00
2022-12-23T10:03:04.776Z,925.00
2022-12-23T10:08:05.017Z,855.00
2022-12-23T10:13:05.682Z,885.00
2022-12-23T10:18:06.354Z,625.00
2022-12-23T10:23:07.097Z,682.00
2022-12-23T10:28:07.719Z,815.00
2022-12-23T10:33:08.406Z,1368.00
2022-12-23T10:38:09.091Z,1144.00
2022-12-23T10:43:09.791Z,1192.00
2022-12-23T10:48:14.156Z,1281.00
2022-12-23T10:53:11.076Z,1362.00
2022-12-23T10:58:11.800Z,1351.00
2022-12-23T11:03:12.602Z,1533.00
2022-12-23T11:08:13.372Z,1184.00
2022-12-23T11:13:14.040Z,847.00
2022-12-23T11:18:14.831Z,725.00
2022-12-23T11:23:15.549Z,658.00
2022-12-23T11:28:16.193Z,547.00
2022-12-23T11:33:16.866Z,586.00
2022-12-23T11:38:17.534Z,416.00
2022-12-23T11:43:25.214Z,468.00
2022-12-23T11:48:18.840Z,432.00
2022-12-23T11:53:19.569Z,468.00
2022-12-23T11:58:20.241Z,492.00
2022-12-23T12:03:20.999Z,416.00
2022-12-23T12:08:21.640Z,605.00
2022-12-23T12:13:22.288Z,768.00
2022-12-23T12:18:23.031Z,600.00
2022-12-23T12:23:23.692Z,870.00
2022-12-23T12:28:24.338Z,1272.00
2022-12-23T12:33:25.083Z,1124.00
2022-12-23T12:38:25.701Z,1245.00
2022-12-23T12:43:26.390Z,1183.00
2022-12-23T12:48:27.011Z,595.00
2022-12-23T12:53:27.676Z,2096.00
2022-12-23T12:58:28.356Z,1944.00
2022-12-23T13:03:28.998Z,1294.00
2022-12-23T13:08:29.750Z,850.00
2022-12-23T13:13:30.429Z,713.00
2022-12-23T13:18:31.090Z,860.00
2022-12-23T13:23:43.409Z,457.00
2022-12-23T13:28:33.256Z,439.00
2022-12-23T13:33:32.967Z,525.00
2022-12-23T13:38:33.591Z,529.00
2022-12-23T13:43:34.261Z,358.00
2022-12-23T13:48:34.919Z,229.00
2022-12-23T13:53:35.603Z,179.00
2022-12-23T13:58:36.251Z,184.00
2022-12-23T14:03:37.007Z,163.00
2022-12-23T14:08:37.678Z,155.00
2022-12-23T14:13:38.367Z,125.00
2022-12-23T14:18:39.029Z,123.00
2022-12-23T14:23:39.688Z,90.00
2022-12-23T14:28:40.358Z,64.00
2022-12-23T14:33:41.015Z,52.00
2022-12-23T14:38:41.683Z,53.00
2022-12-23T14:43:42.423Z,32.00
2022-12-23T14:48:43.049Z,66.00
2022-12-23T14:53:43.829Z,64.00
2022-12-23T14:58:44.505Z,50.00
2022-12-23T15:03:45.146Z,36.00
2022-12-23T15:08:45.818Z,25.00
2022-12-23T15:13:46.512Z,15.00
2022-12-23T15:18:47.131Z,9.00
2022-12-23T15:23:47.817Z,3.00
2022-12-23T15:28:48.328Z,1.00
2022-12-23T15:34:02.981Z,1.00
2022-12-23T15:38:50.572Z,0.00
2022-12-23T15:43:50.289Z,0.00
2022-12-23T15:48:51.089Z,0.00
2022-12-23T15:53:51.629Z,0.00
2022-12-23T15:58:52.344Z,0.00
2022-12-23T16:03:53.278Z,0.00
2022-12-23T16:08:53.596Z,0.00
2022-12-23T16:13:57.992Z,0.00
2022-12-23T16:18:54.731Z,0.00
2022-12-23T16:23:55.491Z,0.00
2022-12-23T16:28:56.202Z,0.00
2022-12-23T16:36:33.410Z,3.00
2022-12-23T16:41:34.070Z,3.00
2022-12-23T16:46:34.745Z,4.00
2022-12-23T16:51:35.378Z,5.00
2022-12-23T16:56:36.122Z,5.00
2022-12-23T17:01:36.857Z,5.00
2022-12-23T17:06:37.333Z,6.00
2022-12-23T17:11:37.961Z,5.00
2022-12-23T17:16:38.674Z,5.00
2022-12-23T17:21:39.309Z,6.00
2022-12-23T17:26:40.067Z,5.00
2022-12-23T17:31:40.775Z,5.00
2022-12-23T17:36:47.561Z,5.00
2022-12-23T17:41:42.998Z,5.00
2022-12-23T17:46:42.767Z,5.00
2022-12-23T17:51:43.486Z,5.00
2022-12-23T17:56:44.161Z,5.00
2022-12-23T18:01:44.947Z,5.00
2022-12-23T18:06:45.662Z,5.00
2022-12-23T18:11:46.420Z,5.00
2022-12-23T18:16:47.210Z,6.00
2022-12-23T18:21:47.916Z,5.00
2022-12-23T18:26:48.592Z,5.00
2022-12-23T18:31:51.657Z,5.00
2022-12-23T18:36:49.934Z,5.00
2022-12-23T18:41:50.622Z,5.00
2022-12-23T18:46:51.488Z,5.00
2022-12-23T18:51:52.176Z,5.00
2022-12-23T18:56:52.880Z,5.00
2022-12-23T19:01:53.726Z,5.00
2022-12-23T19:06:54.483Z,5.00
2022-12-23T19:11:55.178Z,5.00
2022-12-23T19:16:55.898Z,5.00
2022-12-23T19:21:56.639Z,5.00
2022-12-23T19:26:57.336Z,5.00
2022-12-23T19:31:58.064Z,5.00
2022-12-23T19:36:58.746Z,5.00
2022-12-23T19:41:59.476Z,5.00
2022-12-23T19:47:00.149Z,5.00
2022-12-23T19:52:00.866Z,5.00
2022-12-23T19:57:01.562Z,5.00
2022-12-23T20:02:02.328Z,5.00
2022-12-23T20:07:03.024Z,5.00
2022-12-23T20:12:03.774Z,5.00
2022-12-23T20:17:04.459Z,5.00
2022-12-23T20:22:05.191Z,5.00
2022-12-23T20:27:10.887Z,5.00
2022-12-23T20:32:07.524Z,5.00
2022-12-23T20:37:07.153Z,5.00
2022-12-23T20:42:08.081Z,5.00
2022-12-23T20:47:08.740Z,5.00
2022-12-23T20:52:09.523Z,5.00
2022-12-23T20:57:10.247Z,5.00
2022-12-23T21:02:11.012Z,5.00
2022-12-23T21:07:11.740Z,5.00
2022-12-23T21:12:12.410Z,5.00
2022-12-23T21:17:13.153Z,5.00
2022-12-23T21:22:13.947Z,5.00
2022-12-23T21:27:14.629Z,5.00
2022-12-23T21:32:15.325Z,5.00
2022-12-23T21:37:16.108Z,5.00
2022-12-23T21:42:16.728Z,5.00
2022-12-23T21:47:17.563Z,5.00
2022-12-23T21:52:18.201Z,5.00
2022-12-23T21:57:18.901Z,5.00
2022-12-23T22:02:19.700Z,5.00
2022-12-23T22:07:20.333Z,5.00
2022-12-23T22:12:20.972Z,5.00
2022-12-23T22:17:21.695Z,5.00
2022-12-23T22:22:22.332Z,5.00
2022-12-23T22:27:23.021Z,5.00
2022-12-23T22:32:23.667Z,5.00
2022-12-23T22:37:24.324Z,5.00
2022-12-23T22:42:25.020Z,5.00
2022-12-23T22:47:25.704Z,5.00
2022-12-23T22:52:26.447Z,5.00
2022-12-23T22:57:27.119Z,5.00
2022-12-23T23:02:27.909Z,5.00
2022-12-23T23:07:28.623Z,5.00
2022-12-23T23:12:29.290Z,5.00
2022-12-23T23:17:29.976Z,5.00
2022-12-23T23:22:30.659Z,5.00
2022-12-23T23:27:32.480Z,5.00
2022-12-23T23:32:32.240Z,5.00
2022-12-23T23:37:39.880Z,5.00
2022-12-23T23:42:33.500Z,5.00
2022-12-23T23:47:34.165Z,12.00
2022-12-23T23:52:34.881Z,0.00
2022-12-23T23:57:35.628Z,0.00
